Home > Products > Valid Products > TAF

000
FTUS46 KPDT 250200 AAA
TAFRDM
TAF AMD
KRDM 250214Z 2502/2524 34011KT P6SM FEW060
     FM250500 33005KT P6SM SKC
     FM251900 33008KT P6SM SKC=



000
FTUS46 KPDT 242300
TAFRDM
TAF
KRDM 242320Z 2500/2524 31010KT P6SM FEW060
     FM250500 VRB05KT P6SM SKC
     FM251900 33008KT P6SM SKC=



000
FTUS46 KPDT 242300
TAFPDT
TAF
KPDT 242320Z 2500/2524 27015KT P6SM FEW070
     FM250700 20006KT P6SM SKC
     FM251700 29009KT P6SM SKC=



000
FTUS46 KPDT 242300
TAFPSC
TAF
KPSC 242320Z 2500/2524 24016KT P6SM FEW080
     FM250500 21005KT P6SM SKC
     FM251800 25008KT P6SM SKC=



000
FTUS46 KPDT 242300
TAFALW
TAF
KALW 242320Z 2500/2524 23015KT P6SM FEW070
     FM250600 17005KT P6SM SKC
     FM251700 25009KT P6SM SKC=



000
FTUS46 KPDT 242300
TAFYKM
TAF
KYKM 242320Z 2500/2524 29013KT P6SM SCT060
     FM250500 28007KT P6SM SKC
     FM251800 VRB05KT P6SM SKC=



000
FTUS46 KPDT 242300
TAFDLS
TAF
KDLS 242320Z 2500/2524 30016KT P6SM SCT060
     FM250600 30008KT P6SM FEW060
     FM251700 31012KT P6SM SKC=



000
FTUS46 KPDT 241700
TAFPSC
TAF
KPSC 241721Z 2418/2518 23018KT P6SM SCT080
     FM250500 21005KT P6SM SKC=



000
FTUS46 KPDT 241700
TAFALW
TAF
KALW 241721Z 2418/2518 23015KT P6SM SCT070
     FM250500 17005KT P6SM SKC=



000
FTUS46 KPDT 241700
TAFPDT
TAF
KPDT 241721Z 2418/2518 25016KT P6SM SCT070
     FM250700 19005KT P6SM SKC=



000
FTUS46 KPDT 241700
TAFDLS
TAF
KDLS 241721Z 2418/2518 32018G27KT P6SM BKN060
     FM250500 31010KT P6SM SCT060=



000
FTUS46 KPDT 241700
TAFRDM
TAF
KRDM 241721Z 2418/2518 32010KT P6SM SCT060
     FM250500 VRB05KT P6SM SKC=



000
FTUS46 KPDT 241700
TAFYKM
TAF
KYKM 241721Z 2418/2518 26015KT P6SM SCT060
     FM250500 27007KT P6SM SKC=



000
FTUS46 KPDT 241100
TAFDLS
TAF
KDLS 241120Z 2412/2512 31009KT P6SM BKN060 BKN080
     FM241700 31015G23KT P6SM SCT060
     FM242000 31022G30KT P6SM SKC
     FM250400 30014KT P6SM SKC
     FM250600 30009KT P6SM SKC=



000
FTUS46 KPDT 241100
TAFPSC
TAF
KPSC 241120Z 2412/2512 25011KT P6SM BKN090
     FM241500 22014KT P6SM OVC070
     FM242100 24014G20KT P6SM BKN070
     FM250000 22010KT P6SM SCT070
     FM250300 VRB05KT P6SM SKC=



000
FTUS46 KPDT 241100
TAFALW
TAF
KALW 241120Z 2412/2512 18010KT P6SM OVC070
     FM241800 23014G24KT P6SM BKN060
     FM250300 20008KT P6SM SKC
     FM250800 12006KT P6SM SKC=



000
FTUS46 KPDT 241100
TAFPDT
TAF
KPDT 241120Z 2412/2512 15007KT P6SM SCT070
     FM241500 23011KT P6SM BKN060
     FM242000 26018G28KT P6SM SCT060
     FM250300 24011KT P6SM SKC
     FM250800 15006KT P6SM SKC=



000
FTUS46 KPDT 241100
TAFYKM
TAF
KYKM 241120Z 2412/2512 28004KT P6SM SCT045 BKN070
     FM241700 26011KT P6SM SCT070
     FM242100 30012G19KT P6SM SKC
     FM250200 28008KT P6SM SKC=



000
FTUS46 KPDT 241100
TAFRDM
TAF
KRDM 241120Z 2412/2512 VRB05KT P6SM SKC
     FM241800 31007KT P6SM FEW060
     FM242100 33011KT P6SM SCT060
     FM250400 VRB05KT P6SM SKC
     FM250800 18006KT P6SM SKC=



000
FTUS46 KPDT 240500
TAFPDT
TAF
KPDT 240520Z 2406/2506 26011KT P6SM VCSH SCT040 BKN080
     FM240700 23009KT P6SM FEW080
     FM241300 23011KT P6SM BKN050
     FM241700 26018G28KT P6SM FEW060=



000
FTUS46 KPDT 240500
TAFYKM
TAF
KYKM 240520Z 2406/2506 26007KT P6SM FEW100 SCT250
     FM240900 26004KT P6SM VCSH SCT045 BKN070
     FM241700 26011KT P6SM SCT070
     FM242100 30012G19KT P6SM SKC=



000
FTUS46 KPDT 240500
TAFPSC
TAF
KPSC 240520Z 2406/2506 23013G21KT P6SM FEW110
     FM241000 22011KT P6SM BKN090
     FM241500 22016G24KT P6SM SCT100
     FM242200 24014KT P6SM SKC=



000
FTUS46 KPDT 240500
TAFALW
TAF
KALW 240520Z 2406/2506 22012KT P6SM VCSH SCT040 BKN080
     FM240700 20010KT P6SM FEW080
     FM241300 20013KT P6SM BKN045
     FM241800 23017G24KT P6SM FEW060=



000
FTUS46 KPDT 240500
TAFRDM
TAF
KRDM 240520Z 2406/2506 27005KT P6SM FEW060
     FM240900 18005KT P6SM SKC
     FM241800 31007KT P6SM FEW060
     FM242100 33011KT P6SM SCT060=



000
FTUS46 KPDT 240500
TAFDLS
TAF
KDLS 240520Z 2406/2506 31009KT P6SM VCSH SCT060 BKN080
     FM241700 31015G23KT P6SM SCT060
     FM242000 31022G30KT P6SM SKC
     FM250400 30014KT P6SM SKC=



000
FTUS46 KPDT 240400 AAA
TAFPSC
TAF AMD
KPSC 240402Z 2404/2424 23014KT P6SM VCSH BKN100
     FM240600 22012KT P6SM SCT100
     FM241500 23015KT P6SM SCT100=



000
FTUS46 KPDT 240200 AAA
TAFALW
TAF AMD
KALW 240200Z 2402/2424 22013KT P6SM SCT040 BKN060
     FM240600 19010KT P6SM SCT080
     FM241500 23015KT P6SM SCT080=



000
FTUS46 KPDT 240100 AAA
TAFPDT
TAF AMD
KPDT 240157Z 2402/2424 27015G25KT P6SM SCT040 BKN060
     FM240400 26018G26KT P6SM VCSH BKN050
     FM240700 25013KT P6SM SCT050
     FM241800 27015G25KT P6SM SCT080=



000
FTUS46 KPDT 232300
TAFPDT
TAF
KPDT 232320Z 2400/2424 27015G30KT P6SM VCSH BKN070 BKN090
     FM240400 25012KT P6SM SCT090
     FM241800 27015G25KT P6SM SCT080=



000
FTUS46 KPDT 232300
TAFDLS
TAF
KDLS 232320Z 2400/2424 31012G22KT P6SM VCSH BKN050 OVC080
     FM240600 29010KT P6SM VCSH SCT060 BKN080
     FM241800 31018G30KT P6SM FEW070=



000
FTUS46 KPDT 232300
TAFYKM
TAF
KYKM 232320Z 2400/2424 27011KT P6SM VCSH BKN070
     FM240600 28007KT P6SM SCT100
     FM241800 29014KT P6SM FEW080=



000
FTUS46 KPDT 232300
TAFPSC
TAF
KPSC 232320Z 2400/2424 24015G25KT P6SM VCSH SCT100
     FM240600 22012KT P6SM SCT100
     FM241500 23015KT P6SM SCT100=



000
FTUS46 KPDT 232300
TAFALW
TAF
KALW 232320Z 2400/2424 22013G23KT P6SM VCSH BKN060
     FM240600 20011KT P6SM SCT080
     FM241500 23015KT P6SM SCT080=



000
FTUS46 KPDT 232300
TAFRDM
TAF
KRDM 232320Z 2400/2424 31014KT P6SM BKN050 BKN080
     FM240600 18007KT P6SM SCT060
     FM241800 33010KT P6SM FEW060=



000
FTUS46 KPDT 232000 AAA
TAFALW
TAF AMD
KALW 232047Z 2321/2418 25012G22KT P6SM VCTS SCT050CB BKN100
     FM240600 20013KT P6SM SCT050 SCT100=



000
FTUS46 KPDT 232000 AAA
TAFPDT
TAF AMD
KPDT 232046Z 2321/2418 27015G30KT P6SM VCTS BKN050CB BKN100
     FM240300 25016G23KT P6SM SCT100
     FM240900 24012KT P6SM SCT080=



000
FTUS46 KPDT 232000 AAC
TAFRDM
TAF AMD
KRDM 232005Z 2320/2418 14010KT P6SM VCSH OVC080
     FM232100 30015G25KT P6SM VCTS BKN050CB OVC100
     FM240100 30015G25KT P6SM SCT060
     FM240600 18007KT P6SM SCT060=



000
FTUS46 KPDT 231900 AAB
TAFRDM
TAF AMD
KRDM 231911Z 2319/2418 26011G20KT P6SM VCSH OVC030
      TEMPO 2319/2321 2SM RA BR SCT020 OVC030
     FM232100 30015G25KT P6SM VCTS BKN050CB OVC100
     FM240100 30015G25KT P6SM SCT060
     FM240600 18007KT P6SM SCT060=



000
FTUS46 KPDT 231900 AAA
TAFRDM
TAF AMD
KRDM 231903Z 2319/2418 26011G20KT P6SM VCSH OVC030
      TEMPO 2319/2321 3SM -RA BR SCT020 OVC030
     FM232100 30015G25KT P6SM VCTS BKN050CB OVC100
     FM240100 30015G25KT P6SM SCT060
     FM240600 18007KT P6SM SCT060=



000
FTUS46 KPDT 231700
TAFPSC
TAF
KPSC 231724Z 2318/2418 26010KT P6SM BKN100
     FM232100 24015G25KT P6SM VCTS SCT060CB BKN100
     FM240400 22014KT P6SM SCT100=



000
FTUS46 KPDT 231700
TAFRDM
TAF
KRDM 231724Z 2318/2418 28008KT P6SM VCSH OVC030
     FM232100 30015G25KT P6SM VCTS BKN050CB OVC100
     FM240100 30015G25KT P6SM SCT060
     FM240600 18007KT P6SM SCT060=



000
FTUS46 KPDT 231700
TAFYKM
TAF
KYKM 231724Z 2318/2418 28007KT P6SM VCSH SCT090 BKN110
     FM232100 27014G20KT P6SM VCTS BKN060CB BKN100
     FM240200 28007KT P6SM SCT100=



000
FTUS46 KPDT 231700
TAFDLS
TAF
KDLS 231724Z 2318/2418 31012G22KT P6SM VCSH OVC090
     FM231900 31014G25KT 3SM RA BR BKN030 OVC080
     FM232200 31018G30KT P6SM VCTS BKN060CB OVC090
     FM240100 31015G25KT P6SM SCT060 BKN090
     FM240600 29010KT P6SM SCT060=



000
FTUS46 KPDT 231700
TAFALW
TAF
KALW 231724Z 2318/2418 22009KT P6SM SCT100
     FM232200 22018G25KT P6SM VCTS SCT050CB BKN100
     FM240600 20013KT P6SM SCT050 SCT100=



000
FTUS46 KPDT 231700
TAFPDT
TAF
KPDT 231724Z 2318/2418 28015G25KT P6SM SCT100
     FM232200 27020G30KT P6SM VCTS BKN050CB BKN100
     FM240300 25016G23KT P6SM SCT100
     FM240900 24012KT P6SM SCT080=



000
FTUS46 KPDT 231400 AAB
TAFDLS
TAF AMD
KDLS 231456Z 2315/2412 34012G22KT P6SM VCTS SCT060CB BKN100
      TEMPO 2315/2319 2SM RA BR FEW020 OVC040
     FM231900 31020G30KT 6SM -TSRA BKN060CB OVC090
     FM232200 31015G25KT P6SM VCTS BKN060CB OVC090
     FM240100 32010G20KT P6SM VCSH SCT060 BKN090
     FM240600 29010KT P6SM SCT060=



000
FTUS46 KPDT 231300 AAA
TAFDLS
TAF AMD
KDLS 231305Z 2313/2412 30008KT P6SM VCTS SCT060CB BKN100
      TEMPO 2313/2315 -TSRA BKN060CB OVC100CB
     FM231900 31020G30KT 6SM -TSRA BKN060CB OVC090
     FM232200 31015G25KT P6SM VCTS BKN060CB OVC090
     FM240100 32010G20KT P6SM VCSH SCT060 BKN090
     FM240600 29010KT P6SM SCT060=



000
FTUS46 KPDT 231100
TAFYKM
TAF
KYKM 231137Z 2312/2412 26008KT P6SM SCT100
     FM231500 28003KT P6SM VCSH BKN070
     FM231800 28010G20KT P6SM VCTS BKN070CB PROB30 2321/2403 5SM
      -TSRA BKN070CB
     FM240600 28003KT P6SM VCSH BKN100=



000
FTUS46 KPDT 231100
TAFPSC
TAF
KPSC 231137Z 2312/2412 VRB05KT P6SM SCT070 BKN120
     FM231800 25011G16KT P6SM SCT060 BKN100
     FM232100 24017G25KT P6SM VCTS SCT060CB BKN100 PROB30 2323/2404
      5SM -TSRA BKN060CB OVC100
     FM240400 23017G25KT P6SM VCSH SCT070 BKN120
     FM240900 22017G25KT P6SM SCT070 SCT120=



000
FTUS46 KPDT 231100
TAFRDM
TAF
KRDM 231137Z 2312/2412 17005KT P6SM BKN100
     FM231900 29014G23KT 5SM -TSRA BKN060CB BKN100
     FM240000 30015G25KT P6SM VCTS BKN060CB BKN100
     FM240300 30018G25KT P6SM VCSH SCT060 BKN100
     FM240600 32004KT P6SM SCT060 SCT100=



000
FTUS46 KPDT 231100
TAFDLS
TAF
KDLS 231137Z 2312/2412 30008KT P6SM VCSH SCT060 BKN100
     FM231900 31020G30KT 6SM -TSRA BKN060CB OVC090
     FM232200 31015G25KT P6SM VCTS BKN060CB OVC090
     FM240100 32010G20KT P6SM VCSH SCT060 BKN090
     FM240600 29010KT P6SM SCT060=



000
FTUS46 KPDT 231100
TAFALW
TAF
KALW 231137Z 2312/2412 12007KT P6SM BKN100
     FM231500 22007KT P6SM BKN120
     FM231800 24011G16KT P6SM SCT050 BKN100
     FM232200 24018G25KT P6SM VCTS SCT050CB BKN100 PROB30 2323/2404
      5SM -TSRA BKN060CB OVC100
     FM240600 20013KT P6SM VCSH SCT050 SCT100=



000
FTUS46 KPDT 231100
TAFPDT
TAF
KPDT 231137Z 2312/2412 VRB06KT P6SM BKN100
     FM231800 25014G24KT P6SM SCT050 BKN100
     FM232200 28020G30KT P6SM VCTS BKN050CB BKN100 PROB30 2322/2403
      5SM -TSRA BKN050CB BKN100
     FM240600 25016G23KT P6SM SCT050 SCT100=



000
FTUS46 KPDT 230500
TAFALW
TAF
KALW 230525Z 2306/2406 12011KT P6SM -SHRA VCTS SCT060CB BKN100
     FM230900 12007KT P6SM BKN100
     FM231500 22007KT P6SM BKN120
     FM231800 24011G16KT P6SM SCT050 BKN100
     FM232200 24018G25KT P6SM VCTS SCT050CB BKN100=



000
FTUS46 KPDT 230500
TAFRDM
TAF
KRDM 230525Z 2306/2406 VRB06KT P6SM -SHRA BKN100
     FM231000 17005KT P6SM BKN100
     FM232000 29014G23KT P6SM VCTS BKN060CB BKN100
     FM240300 30018G25KT P6SM VCSH SCT060 BKN100=



000
FTUS46 KPDT 230500
TAFPDT
TAF
KPDT 230525Z 2306/2406 09008KT P6SM -SHRA VCTS SCT060CB BKN100
     FM230900 VRB06KT P6SM BKN100
     FM231800 25014G24KT P6SM SCT050 BKN100
     FM232200 28020G30KT P6SM VCTS BKN050CB BKN100=



000
FTUS46 KPDT 230500
TAFPSC
TAF
KPSC 230525Z 2306/2406 VRB06KT P6SM VCTS BKN080CB OVC120
     FM230900 VRB05KT P6SM SCT070 BKN120
     FM231800 25011G16KT P6SM SCT060 BKN100
     FM232100 24017G25KT P6SM VCTS SCT060CB BKN100
     FM240400 23017G25KT P6SM VCSH SCT070 BKN120=



000
FTUS46 KPDT 230500
TAFDLS
TAF
KDLS 230525Z 2306/2406 31011KT P6SM -SHRA VCTS SCT060CB BKN100
     FM230800 30008KT P6SM VCSH SCT060 BKN100
     FM231900 31020G30KT P6SM -TSRA BKN060CB OVC090
     FM240100 32022G32KT P6SM VCSH SCT060 BKN090=



000
FTUS46 KPDT 230500
TAFYKM
TAF
KYKM 230525Z 2306/2406 28006KT P6SM VCSH BKN080
     FM231200 26008KT P6SM VCTS BKN070CB
     FM231800 28010KT P6SM VCSH BKN070
     FM232000 25014G20KT P6SM VCSH BKN100
     FM240200 28017G24KT P6SM SCT120=



000
FTUS46 KPDT 222300
TAFYKM
TAF
KYKM 222320Z 2300/2324 VRB06KT P6SM VCSH BKN080
     FM230800 26008KT P6SM BKN150
     FM231200 26008KT P6SM OVC080
     FM231500 28010KT P6SM BKN100
     FM232000 25012KT P6SM VCSH BKN100=



000
FTUS46 KPDT 222300
TAFALW
TAF
KALW 222320Z 2300/2324 35008KT P6SM VCTS SCT060CB BKN100
      TEMPO 2300/2304 5SM -TSRA BKN040CB
     FM231000 12007KT P6SM BKN100
     FM231800 25015G25KT P6SM SCT050 BKN100=



000
FTUS46 KPDT 222300
TAFRDM
TAF
KRDM 222320Z 2300/2324 20010KT P6SM VCTS BKN050CB BKN070
      TEMPO 2300/2304 VRB30G40KT 5SM -TSRA BKN030CB BKN050
     FM230400 32008KT P6SM -RA BKN050 OVC100
     FM230800 20008KT P6SM BKN100
     FM232000 32010KT P6SM SCT050 BKN100
      TEMPO 2320/2324 -TSRA BKN050CB=



000
FTUS46 KPDT 222300
TAFPSC
TAF
KPSC 222320Z 2300/2324 34007KT P6SM VCTS BKN080CB OVC120CB
     FM230600 35007KT P6SM VCTS BKN080CB OVC120CB
     FM231200 VRB06KT P6SM BKN120
     FM231800 25015G25KT P6SM SCT050 BKN100=



000
FTUS46 KPDT 222300
TAFDLS
TAF
KDLS 222320Z 2300/2324 32009KT P6SM SCT060 BKN100
      TEMPO 2300/2304 VRB20G35KT -TSRA BKN050CB
     FM230400 34009KT P6SM VCTS BKN050CB OVC100
     FM230800 30008KT P6SM VCSH SCT050 BKN100
     FM232000 30015G25KT P6SM VCSH BKN050 BKN100=



000
FTUS46 KPDT 222300
TAFPDT
TAF
KPDT 222320Z 2300/2324 35008KT P6SM VCTS SCT060CB BKN100
      TEMPO 2300/2304 5SM -TSRA BKN040CB OVC100
     FM231000 15007KT P6SM BKN100
     FM231800 25015G25KT P6SM SCT050 BKN100=



000
FTUS46 KPDT 221900 AAA
TAFRDM
TAF AMD
KRDM 221921Z 2219/2318 20008KT P6SM SCT070 BKN100
      TEMPO 2219/2223 VRB30G40KT 5SM -TSRA BKN050CB BKN100
     FM222300 20010KT P6SM VCTS BKN050CB BKN070
      TEMPO 2223/2303 VRB30G45KT 5SM -TSRA BKN030CB BKN050
     FM230300 32008KT P6SM -RA BKN050 OVC070
     FM230800 20008KT P6SM SCT050 BKN100=



000
FTUS46 KPDT 221700
TAFDLS
TAF
KDLS 221728Z 2218/2318 32010KT P6SM VCSH BKN100
     FM222000 32009KT P6SM SCT060 BKN100
      TEMPO 2220/2223 VRB20G35KT -TSRA BKN050CB
     FM222300 34009KT P6SM VCTS BKN050CB OVC100
     FM230600 30008KT P6SM VCSH SCT060 BKN100=



000
FTUS46 KPDT 221700
TAFRDM
TAF
KRDM 221728Z 2218/2318 20008KT P6SM SCT070 BKN100
      TEMPO 2220/2223 VRB30G40KT 5SM -TSRA BKN050CB BKN100
     FM222300 20010KT P6SM VCTS BKN050CB BKN070
      TEMPO 2223/2303 VRB30G45KT 5SM -TSRA BKN030CB BKN050
     FM230300 32008KT P6SM -RA BKN050 OVC070
     FM230800 20008KT P6SM SCT050 BKN100=



000
FTUS46 KPDT 221700
TAFPDT
TAF
KPDT 221728Z 2218/2318 34006KT P6SM OVC100
     FM222300 33008KT P6SM VCSH SCT060 BKN100
     FM230200 33008KT P6SM VCTS SCT060CB BKN120
      TEMPO 2302/2306 5SM -TSRA BKN040CB OVC100
     FM230600 27006KT P6SM VCSH SCT060 BKN100
     FM231000 14006KT P6SM BKN120=



000
FTUS46 KPDT 221700
TAFALW
TAF
KALW 221728Z 2218/2318 34006KT P6SM SCT050 OVC100
     FM222300 26006KT P6SM VCSH SCT060 BKN100
     FM230300 26006KT P6SM VCTS SCT060CB BKN120
      TEMPO 2303/2306 5SM -TSRA BKN060CB OVC120
     FM230600 12006KT P6SM VCSH SCT060 BKN120
     FM231000 12006KT P6SM BKN120=



000
FTUS46 KPDT 221700
TAFYKM
TAF
KYKM 221728Z 2218/2318 27006KT P6SM -SHRA BKN080 OVC120
     FM222300 VRB05KT P6SM VCSH SCT070 BKN120
     FM230200 24006KT P6SM BKN060 OVC100
     FM230600 26005KT P6SM BKN150
     FM231200 26007KT P6SM OVC080
     FM231500 28009KT P6SM VCTS BKN060CB BKN080CB=



000
FTUS46 KPDT 221700
TAFPSC
TAF
KPSC 221728Z 2218/2318 VRB05KT P6SM OVC120
     FM222100 VRB06KT P6SM SCT080 BKN120
     FM230000 34007KT P6SM VCTS BKN080CB OVC120CB
     FM230600 35007KT P6SM VCSH BKN080 OVC120
     FM231200 VRB06KT P6SM BKN120=



000
FTUS46 KPDT 221100 AAA
TAFALW
TAF AMD
KALW 221134Z 2212/2312 16006KT P6SM OVC100
     FM221700 22006KT P6SM SCT060 BKN100
     FM222300 26006KT P6SM SCT060
     FM230300 26006KT P6SM VCTS SCT060CB BKN120 PROB30 2303/2306 5SM
      -TSRA BKN060CB OVC120
     FM230600 14006KT P6SM VCSH SCT060 BKN120=



000
FTUS46 KPDT 221100 AAA
TAFPSC
TAF AMD
KPSC 221133Z 2212/2312 VRB05KT P6SM BKN120
     FM222100 VRB06KT P6SM SCT080 BKN120
     FM230000 34007KT P6SM VCTS BKN080CB OVC120CB PROB30 2300/2306
      5SM -TSRA BKN080CB OVC120CB
     FM230600 35007KT P6SM VCSH BKN080 OVC120=



000
FTUS46 KPDT 221100
TAFALW
TAF
KALW 221126Z 2212/2312 16006KT P6SM OVC100
     FM221700 22006KT P6SM SCT060 BKN100
     FM222300 26006KT P6SM SCT060
     FM230300 26006KT P6SM VCTS SCT060CB BKN120 PROB30 2303/2308 5SM
      -TSRA BKN060CB OVC120=



000
FTUS46 KPDT 221100
TAFRDM
TAF
KRDM 221126Z 2212/2312 15010KT P6SM OVC080
     FM221800 32010KT P6SM VCTS BKN060CB OVC090 PROB30 2300/2306 5SM
      -TSRA BKN060CB OVC090
     FM230600 18003KT P6SM VCSH SCT060 BKN090=



000
FTUS46 KPDT 221100
TAFYKM
TAF
KYKM 221126Z 2212/2312 27006KT P6SM OVC120
     FM221300 VRB05KT P6SM BKN070 OVC120
     FM222300 VRB05KT P6SM SCT070 BKN120
     FM230200 24006KT P6SM VCTS BKN060CB OVC100
     FM230600 26005KT P6SM VCSH BKN060 OVC100=



000
FTUS46 KPDT 221100
TAFPDT
TAF
KPDT 221126Z 2212/2312 14006KT P6SM VCSH OVC100
     FM221700 25008KT P6SM VCSH SCT060 BKN100
     FM222300 33008KT P6SM VCSH SCT060 BKN100
     FM230200 33008KT P6SM VCTS SCT060CB BKN120 PROB30 2302/2306 5SM
      -TSRA BKN060CB OVC120
     FM230600 27006KT P6SM VCSH SCT060 BKN100=



000
FTUS46 KPDT 221100
TAFDLS
TAF
KDLS 221126Z 2212/2312 30010KT P6SM VCSH BKN070 OVC100
     FM221500 VRB05KT P6SM VCSH BKN060 OVC090
     FM222100 31009KT P6SM SCT060 BKN120
     FM230000 34009KT P6SM VCTS BKN060CB OVC100
     FM230600 30008KT P6SM VCSH SCT060 BKN100=



000
FTUS46 KPDT 221100
TAFPSC
TAF
KPSC 221126Z 2212/2312 VRB05KT P6SM BKN120
     FM222100 VRB06KT P6SM SCT080 BKN120
     FM230000 34007KT P6SM VCTS BKN080CB OVC120CB PROB30 2300/2306
      5SM -TSRA BKN080CB OVC120CB=



000
FTUS46 KPDT 220500
TAFDLS
TAF
KDLS 220520Z 2206/2306 29009KT P6SM OVC100
     FM221200 30010KT P6SM BKN070 OVC100
     FM221500 VRB05KT P6SM VCSH BKN060 OVC090
     FM222100 31009KT P6SM SCT060 BKN120=



000
FTUS46 KPDT 220500
TAFYKM
TAF
KYKM 220520Z 2206/2306 27004KT P6SM BKN150
     FM220900 27006KT P6SM OVC120
     FM221300 VRB05KT P6SM BKN070 OVC120
     FM222300 VRB05KT P6SM SCT070 BKN120=



000
FTUS46 KPDT 220500
TAFPSC
TAF
KPSC 220520Z 2206/2306 VRB05KT P6SM BKN120
     FM222100 VRB06KT P6SM SCT080 BKN120=



000
FTUS46 KPDT 220500
TAFALW
TAF
KALW 220520Z 2206/2306 10006KT P6SM BKN120
     FM221200 12006KT P6SM OVC100
     FM221700 22006KT P6SM SCT060 BKN100
     FM222300 26006KT P6SM SCT060
     FM230300 26006KT P6SM VCTS SCT060CB BKN120=



000
FTUS46 KPDT 220500
TAFPDT
TAF
KPDT 220520Z 2206/2306 12006KT P6SM BKN120
     FM221200 14006KT P6SM OVC100
     FM221700 25008KT P6SM SCT060 BKN100
     FM222300 33008KT P6SM SCT060
     FM230200 33008KT P6SM VCTS SCT060CB BKN120=



000
FTUS46 KPDT 220500
TAFRDM
TAF
KRDM 220520Z 2206/2306 33010KT P6SM OVC080
     FM221800 32010KT P6SM VCTS BKN060CB OVC090=



    US Dept of Commerce
    National Oceanic and Atmospheric Administration
    National Weather Service
    1325 East West Highway
    Silver Spring, MD 20910
    Page Author: NWS Internet Services Team
Disclaimer
Information Quality
Credits
Glossary
Privacy Policy
Freedom of Information Act (FOIA)
About Us
Career Opportunities